Time;durP1;ratioP1;P1;durP2;ratioP2;P2;SDS_P1;SDS_P2;PMS_P1;PMS_P2;Temp;Humidity;BMP_temperature;BMP_pressure;BME280_temperature;BME280_humidity;BME280_pressure;Samples;Min_cycle;Max_cycle;Signal;HPM_P1;HPM_P2
2021/03/13 00:04:13;;;;;;;14.00;5.47;;;;;;;4.62;65.14;99384.56;5086729;57;1134515;-81
2021/03/13 00:09:19;;;;;;;14.87;5.67;;;;;;;4.64;65.07;99377.44;5086707;57;1134736;-79
2021/03/13 00:14:25;;;;;;;16.12;5.87;;;;;;;4.65;65.17;99371.25;5078864;57;1134407;-82
2021/03/13 00:19:31;;;;;;;12.80;5.17;;;;;;;4.65;65.29;99370.78;5084878;56;1134410;-83
2021/03/13 00:24:36;;;;;;;15.35;5.97;;;;;;;4.64;65.14;99370.89;5051044;56;1134812;-85
2021/03/13 00:29:42;;;;;;;25.77;5.05;;;;;;;4.59;65.34;99361.57;5014708;57;1134635;-81
2021/03/13 00:34:48;;;;;;;10.63;3.33;;;;;;;4.57;65.24;99356.95;5033447;56;1134903;-79
2021/03/13 00:39:53;;;;;;;13.30;4.43;;;;;;;4.57;65.06;99349.56;5021836;56;1134933;-86
2021/03/13 00:44:59;;;;;;;14.47;4.77;;;;;;;4.59;65.14;99346.33;5027897;56;1134696;-83
2021/03/13 00:50:07;;;;;;;17.27;4.10;;;;;;;4.62;64.91;99350.52;5009524;57;1135178;-83
2021/03/13 00:55:15;;;;;;;16.30;3.43;;;;;;;4.64;65.00;99335.06;5088956;56;1134767;-84
2021/03/13 01:00:26;;;;;;;8.47;3.37;;;;;;;4.71;64.81;99330.23;5105654;56;1134938;-85
2021/03/13 01:05:33;;;;;;;7.43;2.50;;;;;;;4.76;64.56;99319.77;5131514;56;1132653;-84
2021/03/13 01:10:41;;;;;;;9.00;3.20;;;;;;;4.82;64.76;99317.19;5144894;56;1132639;-82
2021/03/13 01:15:49;;;;;;;9.87;3.60;;;;;;;4.84;64.54;99313.51;5154168;56;1132645;-81
2021/03/13 01:20:54;;;;;;;5.53;2.43;;;;;;;4.90;64.49;99296.48;5160791;56;1132630;-82
2021/03/13 01:26:01;;;;;;;16.40;4.12;;;;;;;4.94;64.20;99301.39;5159806;56;1132592;-82
2021/03/13 01:31:08;;;;;;;12.17;3.23;;;;;;;5.01;64.03;99291.31;5160423;56;1135037;-80
2021/03/13 01:36:14;;;;;;;9.27;2.97;;;;;;;5.08;63.72;99284.64;5160418;56;1134817;-81
2021/03/13 01:41:21;;;;;;;8.17;2.47;;;;;;;5.20;63.30;99279.79;5160441;56;1132908;-81
2021/03/13 01:46:28;;;;;;;5.87;2.33;;;;;;;5.33;63.41;99268.41;5160911;56;1132723;-83
2021/03/13 01:51:34;;;;;;;5.67;2.95;;;;;;;5.37;63.44;99268.03;5160849;56;1132837;-83
2021/03/13 01:56:44;;;;;;;10.18;3.10;;;;;;;5.35;63.77;99274.38;5160529;56;1132664;-83
2021/03/13 02:01:50;;;;;;;12.73;3.60;;;;;;;5.28;64.48;99285.31;5160101;56;1134942;-84
2021/03/13 02:07:18;;;;;;;8.50;2.80;;;;;;;5.23;65.54;99283.50;5160268;56;1134330;-83
2021/03/13 02:12:59;;;;;;;7.28;2.00;;;;;;;5.20;65.75;99269.78;5160588;56;1132766;-81
2021/03/13 02:18:19;;;;;;;13.83;3.80;;;;;;;5.12;67.39;99269.53;5160383;56;1132649;-83
2021/03/13 02:23:26;;;;;;;7.60;3.03;;;;;;;5.04;69.83;99270.60;5159396;56;1134706;-84
2021/03/13 02:28:59;;;;;;;6.70;3.27;;;;;;;4.89;71.43;99275.16;5160621;56;1132312;-78
2021/03/13 02:34:07;;;;;;;6.20;2.27;;;;;;;4.82;71.67;99263.48;5093939;57;1132131;-85
2021/03/13 02:39:27;;;;;;;9.43;3.00;;;;;;;4.73;72.50;99253.23;5093877;57;1132157;-82
2021/03/13 02:44:37;;;;;;;7.95;2.80;;;;;;;4.71;72.90;99256.43;5094035;57;1132266;-81
2021/03/13 02:49:48;;;;;;;5.15;2.30;;;;;;;4.68;72.99;99248.80;5092836;57;1132214;-83
2021/03/13 02:54:58;;;;;;;5.70;2.67;;;;;;;4.69;73.50;99247.84;5093516;57;1132330;-83
2021/03/13 03:00:08;;;;;;;7.20;2.27;;;;;;;4.71;72.98;99248.57;5094202;57;1132314;-80
2021/03/13 03:05:16;;;;;;;8.07;1.90;;;;;;;4.71;73.71;99239.87;5094325;57;1132386;-83
2021/03/13 03:10:26;;;;;;;5.87;2.30;;;;;;;4.71;73.67;99247.27;5116413;56;1132245;-82
2021/03/13 03:15:34;;;;;;;10.33;3.63;;;;;;;4.68;73.58;99244.03;5160753;56;1139560;-82
2021/03/13 03:20:42;;;;;;;10.05;3.00;;;;;;;4.71;73.14;99243.34;5160756;56;1134246;-82
2021/03/13 03:25:54;;;;;;;8.43;2.07;;;;;;;4.67;73.29;99243.66;5160848;56;1134291;-83
2021/03/13 03:31:00;;;;;;;16.37;3.17;;;;;;;4.69;73.24;99239.16;5160718;56;1132661;-84
2021/03/13 03:36:08;;;;;;;6.30;2.20;;;;;;;4.67;73.23;99238.42;5160800;56;1134506;-81
2021/03/13 03:41:16;;;;;;;11.57;3.30;;;;;;;4.66;73.85;99239.37;5161024;56;1132518;-81
2021/03/13 03:46:24;;;;;;;5.10;2.37;;;;;;;4.67;73.40;99244.50;5160642;56;1134382;-85
2021/03/13 03:51:31;;;;;;;8.93;1.93;;;;;;;4.67;73.67;99239.27;5180934;56;1132287;-81
2021/03/13 03:56:44;;;;;;;6.78;2.22;;;;;;;4.71;73.44;99241.19;5153953;56;1132440;-82
2021/03/13 04:01:54;;;;;;;4.53;1.67;;;;;;;4.69;73.58;99236.06;5161769;56;1132551;-82
2021/03/13 04:07:03;;;;;;;8.20;2.47;;;;;;;4.73;73.43;99237.98;5161781;56;1132113;-84
2021/03/13 04:12:10;;;;;;;10.25;3.70;;;;;;;4.73;73.55;99240.61;5162036;56;1132103;-82
2021/03/13 04:17:16;;;;;;;4.07;1.37;;;;;;;4.78;73.60;99263.34;5161514;56;1134302;-82
2021/03/13 04:22:24;;;;;;;7.83;1.87;;;;;;;4.80;73.69;99249.19;5161291;56;1132206;-81
2021/03/13 04:27:30;;;;;;;10.23;1.53;;;;;;;4.83;73.72;99240.27;5164814;56;1132233;-80
2021/03/13 04:32:36;;;;;;;4.83;1.40;;;;;;;4.84;73.63;99250.64;5161395;56;1134813;-86
2021/03/13 04:37:43;;;;;;;4.83;1.60;;;;;;;4.82;73.69;99263.02;5161815;56;1132804;-81
2021/03/13 04:42:50;;;;;;;2.50;1.40;;;;;;;4.84;73.92;99263.73;5161842;56;1132610;-83
2021/03/13 04:47:56;;;;;;;4.00;1.13;;;;;;;4.83;74.18;99269.92;5161805;56;1132133;-82
2021/03/13 04:53:02;;;;;;;3.00;1.17;;;;;;;4.83;74.52;99266.47;5161821;56;1132148;-83
2021/03/13 04:58:08;;;;;;;6.20;1.43;;;;;;;4.89;74.64;99273.38;5161785;56;1132252;-85
2021/03/13 05:03:17;;;;;;;5.53;1.13;;;;;;;4.91;74.53;99275.42;5161751;56;1132162;-86
2021/03/13 05:08:23;;;;;;;3.53;1.03;;;;;;;4.89;74.75;99289.58;5161596;56;1132115;-80
2021/03/13 05:13:28;;;;;;;3.07;1.57;;;;;;;4.90;74.87;99291.25;5161903;56;1132057;-81
2021/03/13 05:18:34;;;;;;;6.97;1.50;;;;;;;4.92;74.86;99291.50;5162147;56;1132321;-82
2021/03/13 05:23:41;;;;;;;2.15;1.40;;;;;;;4.89;74.87;99293.50;5161888;56;1132925;-79
2021/03/13 05:28:47;;;;;;;4.83;2.70;;;;;;;4.88;75.03;99294.01;5161891;56;1132361;-82
2021/03/13 05:33:53;;;;;;;7.25;1.35;;;;;;;4.86;75.35;99295.06;5161681;56;1132448;-81
2021/03/13 05:38:59;;;;;;;94.47;51.07;;;;;;;4.86;75.41;99297.69;5161567;56;1132559;-79
2021/03/13 05:44:07;;;;;;;15.93;13.70;;;;;;;4.89;75.22;99305.30;5161152;56;1136528;-83
2021/03/13 05:49:14;;;;;;;1.27;0.90;;;;;;;4.88;75.69;99310.20;5161269;56;1136542;-83
2021/03/13 05:54:20;;;;;;;12.80;8.67;;;;;;;4.90;75.74;99303.88;5161724;56;1132226;-84
2021/03/13 05:59:25;;;;;;;6.87;4.77;;;;;;;4.90;75.74;99316.97;5161867;56;1134297;-84
2021/03/13 06:04:32;;;;;;;7.78;3.92;;;;;;;4.89;75.38;99306.13;5144423;56;1132266;-85
2021/03/13 06:09:37;;;;;;;77.30;41.77;;;;;;;4.90;75.58;99309.11;5141169;56;1132285;-83
2021/03/13 06:14:45;;;;;;;5.12;3.58;;;;;;;4.91;75.49;99317.34;5131799;56;1136823;-77
2021/03/13 06:20:01;;;;;;;8.67;4.27;;;;;;;4.92;75.89;99305.07;5090453;56;1132208;-84
2021/03/13 06:25:28;;;;;;;6.10;2.43;;;;;;;4.94;75.58;99309.25;5083161;56;1132156;-79
2021/03/13 06:30:51;;;;;;;1.60;1.20;;;;;;;4.94;75.66;99294.84;5151239;56;1136316;-81
2021/03/13 06:36:04;;;;;;;2.83;1.65;;;;;;;5.04;75.31;99304.16;5120734;56;1132274;-78
2021/03/13 06:41:17;;;;;;;3.93;1.77;;;;;;;5.10;75.14;99302.41;5138316;56;1132134;-81
2021/03/13 06:46:33;;;;;;;4.17;1.33;;;;;;;5.11;75.17;99309.32;5066228;57;1132579;-82
2021/03/13 06:51:39;;;;;;;5.87;1.80;;;;;;;5.27;75.07;99309.02;5066568;57;1132174;-79
2021/03/13 06:56:57;;;;;;;2.90;1.40;;;;;;;5.45;74.51;99313.35;5066354;57;1132340;-79
2021/03/13 07:02:14;;;;;;;4.30;1.57;;;;;;;5.46;73.98;99309.78;5106179;56;1132537;-83
2021/03/13 07:07:31;;;;;;;3.53;1.97;;;;;;;5.55;74.06;99315.63;5106823;56;1132923;-78
2021/03/13 07:12:40;;;;;;;2.53;1.57;;;;;;;5.71;73.81;99314.81;5096662;56;1132661;-82
2021/03/13 07:18:01;;;;;;;16.63;6.77;;;;;;;5.76;73.16;99315.78;5131732;56;1132869;-81
2021/03/13 07:23:08;;;;;;;38.83;17.07;;;;;;;5.87;73.06;99320.55;5114828;56;1134733;-84
2021/03/13 09:05:50;;;;;;;6.27;2.17;;;;;;;7.53;69.73;99246.57;5160969;54;46111;-76
2021/03/13 09:10:55;;;;;;;6.57;3.10;;;;;;;7.74;69.62;99236.84;5045710;57;1128299;-77
2021/03/13 09:16:20;;;;;;;5.30;1.77;;;;;;;8.01;68.32;99234.09;5050547;57;1132404;-79
2021/03/13 09:21:50;;;;;;;5.97;2.03;;;;;;;7.92;66.51;99227.84;5020103;57;1134458;-79
2021/03/13 09:27:01;;;;;;;2.57;1.70;;;;;;;7.87;67.37;99231.34;4990179;57;1132254;-77
2021/03/13 09:32:14;;;;;;;6.20;2.60;;;;;;;7.86;67.34;99217.84;5032540;57;1132315;-76
2021/03/13 09:37:29;;;;;;;13.10;5.33;;;;;;;8.22;67.08;99202.41;4970655;57;1134490;-76
2021/03/13 09:42:37;;;;;;;4.65;2.00;;;;;;;8.37;66.31;99195.33;4962760;57;1134820;-75
2021/03/13 09:47:50;;;;;;;1.87;1.40;;;;;;;8.45;65.64;99181.45;4858650;58;1132171;-75
2021/03/13 09:52:57;;;;;;;3.75;1.85;;;;;;;8.66;65.96;99180.84;4902615;58;1132295;-77
2021/03/13 09:58:05;;;;;;;4.07;1.60;;;;;;;8.72;64.38;99172.84;5054284;57;1132131;-77
2021/03/13 10:03:14;;;;;;;4.63;1.70;;;;;;;8.78;63.55;99186.30;4964104;57;1132225;-74
2021/03/13 10:08:20;;;;;;;2.47;1.53;;;;;;;8.73;61.80;99168.75;5067379;57;1132429;-77
2021/03/13 10:13:25;;;;;;;8.07;1.57;;;;;;;8.80;63.07;99154.05;5071680;57;1132180;-74
2021/03/13 10:18:34;;;;;;;3.53;1.70;;;;;;;8.94;62.79;99155.89;5038045;57;1132425;-76
2021/03/13 10:23:40;;;;;;;4.23;1.37;;;;;;;9.15;62.35;99145.52;5044217;57;1132451;-77
2021/03/13 10:28:52;;;;;;;1.87;1.33;;;;;;;9.27;60.41;99142.69;5045883;57;1132471;-76
2021/03/13 10:33:58;;;;;;;1.23;1.13;;;;;;;9.30;60.56;99134.50;5023169;57;1135068;-77
2021/03/13 10:39:04;;;;;;;5.53;1.87;;;;;;;9.25;60.30;99134.09;5060141;57;1132873;-77
2021/03/13 10:44:14;;;;;;;2.80;1.97;;;;;;;9.20;60.69;99124.45;5086894;57;1132721;-77
2021/03/13 10:49:27;;;;;;;5.40;1.40;;;;;;;9.05;59.67;99114.84;5061756;57;1132328;-77
2021/03/13 10:54:33;;;;;;;5.47;2.40;;;;;;;9.02;60.67;99104.58;5057355;57;1132217;-77
2021/03/13 10:59:39;;;;;;;8.70;1.43;;;;;;;9.02;60.27;99106.73;5022191;57;1226953;-76
2021/03/13 11:04:45;;;;;;;4.75;2.15;;;;;;;9.06;59.74;99090.97;5054223;57;1133110;-79
2021/03/13 11:09:51;;;;;;;6.20;3.02;;;;;;;9.09;58.82;99081.94;5029133;57;1132402;-76
2021/03/13 11:14:56;;;;;;;10.33;2.47;;;;;;;8.98;58.50;99076.38;5039589;57;1132535;-78
2021/03/13 11:20:02;;;;;;;4.20;2.63;;;;;;;8.89;59.61;99070.63;5062400;57;1134424;-77
2021/03/13 11:25:09;;;;;;;2.77;1.07;;;;;;;8.93;59.92;99084.36;5049628;57;1132506;-77
2021/03/13 11:30:16;;;;;;;14.90;8.57;;;;;;;8.85;59.63;99067.95;4997977;58;1132763;-75
2021/03/13 11:35:23;;;;;;;6.47;2.77;;;;;;;8.81;61.07;99067.88;4997924;58;1134473;-76
2021/03/13 11:40:29;;;;;;;10.13;4.60;;;;;;;8.76;62.44;99066.16;4997801;58;1132175;-75
2021/03/13 11:45:35;;;;;;;18.30;9.17;;;;;;;8.66;63.81;99060.92;4997576;58;1134270;-75
2021/03/13 11:50:40;;;;;;;23.80;10.00;;;;;;;8.59;64.56;99051.08;4997889;58;1134239;-74
2021/03/13 11:55:48;;;;;;;35.25;21.07;;;;;;;8.60;65.65;99046.98;4997664;58;1138603;-74
2021/03/13 12:00:53;;;;;;;33.85;15.15;;;;;;;8.52;66.29;99036.34;4997399;58;1138649;-74
2021/03/13 12:05:59;;;;;;;7.33;4.90;;;;;;;8.35;68.73;99027.35;4993920;58;1138515;-74
2021/03/13 12:11:04;;;;;;;14.03;7.97;;;;;;;8.17;70.10;99026.85;4906314;59;1134860;-74
2021/03/13 12:16:10;;;;;;;20.90;10.30;;;;;;;8.10;70.85;99023.45;4906438;59;1136345;-73
2021/03/13 12:21:16;;;;;;;29.20;15.33;;;;;;;8.05;72.24;99009.89;4985260;57;1138428;-74
2021/03/13 12:26:21;;;;;;;24.23;10.43;;;;;;;7.96;72.40;98996.72;4911531;59;1138492;-75
2021/03/13 12:31:27;;;;;;;20.87;9.63;;;;;;;7.85;73.48;98991.61;4848395;58;1138958;-74
2021/03/13 12:36:34;;;;;;;14.80;6.97;;;;;;;7.77;72.90;98967.31;4838530;57;1136601;-74
2021/03/13 12:41:39;;;;;;;10.83;4.03;;;;;;;7.79;74.70;98970.64;4821434;59;1136646;-76
2021/03/13 12:46:45;;;;;;;10.27;5.50;;;;;;;7.74;74.44;98955.26;4743617;59;1136766;-75
2021/03/13 12:51:50;;;;;;;22.35;11.25;;;;;;;7.75;75.00;98933.72;4915924;59;1136599;-74
2021/03/13 12:56:56;;;;;;;17.23;9.70;;;;;;;7.72;75.37;98928.73;4837562;59;1138665;-74
2021/03/13 13:02:01;;;;;;;23.40;13.53;;;;;;;7.68;75.16;98915.02;4899821;58;1136772;-75
2021/03/13 13:07:07;;;;;;;74.87;30.23;;;;;;;7.71;76.20;98902.90;4908308;58;1138651;-75
2021/03/13 13:12:13;;;;;;;10.10;6.07;;;;;;;7.66;77.06;98898.53;4976819;58;1138969;-75
2021/03/13 13:17:18;;;;;;;34.43;16.07;;;;;;;7.66;76.59;98889.81;4980902;58;1136744;-75
2021/03/13 13:22:24;;;;;;;11.13;5.23;;;;;;;7.66;78.07;98891.13;4981110;58;1138641;-75
2021/03/13 13:27:29;;;;;;;38.70;17.87;;;;;;;7.63;77.76;98884.37;4977091;58;1136456;-75
2021/03/13 13:32:35;;;;;;;30.03;14.33;;;;;;;7.63;77.79;98866.44;4980470;58;1138340;-75
2021/03/13 13:37:40;;;;;;;39.67;19.80;;;;;;;7.59;77.97;98853.20;4980995;58;1138357;-76
2021/03/13 13:42:47;;;;;;;30.17;13.08;;;;;;;7.62;78.82;98856.88;4981143;58;1138418;-74
2021/03/13 13:47:53;;;;;;;19.27;8.58;;;;;;;7.58;79.47;98836.59;4980778;58;1139354;-76
2021/03/13 13:53:01;;;;;;;18.30;6.17;;;;;;;7.59;79.77;98834.80;4982459;57;1136571;-77
2021/03/13 13:58:06;;;;;;;4.03;3.20;;;;;;;7.59;80.13;98813.75;5076036;56;1136461;-77
2021/03/13 14:03:12;;;;;;;26.80;12.90;;;;;;;7.55;81.02;98814.51;5074249;57;1134744;-75
2021/03/13 14:08:18;;;;;;;9.10;5.63;;;;;;;7.54;80.00;98807.59;5075432;56;1138420;-77
2021/03/13 14:13:23;;;;;;;15.07;8.47;;;;;;;7.58;80.31;98787.92;5076117;56;1134374;-77
2021/03/13 14:18:29;;;;;;;4.30;3.10;;;;;;;7.58;80.07;98788.41;5076069;56;1136750;-77
2021/03/13 14:23:35;;;;;;;5.87;3.00;;;;;;;7.57;80.91;98788.06;5076071;56;1134302;-75
2021/03/13 14:28:42;;;;;;;4.80;3.70;;;;;;;7.56;81.09;98783.28;5069542;57;1134793;-77
2021/03/13 14:33:47;;;;;;;5.42;3.58;;;;;;;7.55;80.70;98771.59;5075628;56;1134451;-76
2021/03/13 14:38:53;;;;;;;6.30;4.08;;;;;;;7.55;81.04;98765.84;5076661;57;1135057;-76
2021/03/13 14:43:59;;;;;;;18.62;8.10;;;;;;;7.52;82.09;98759.55;5076417;57;1134445;-74
2021/03/13 14:49:06;;;;;;;12.80;6.10;;;;;;;7.49;81.70;98757.67;5076250;56;1136472;-76
2021/03/13 14:54:11;;;;;;;9.00;4.87;;;;;;;7.46;81.74;98747.47;5076064;57;1136588;-73
2021/03/13 14:59:18;;;;;;;6.33;3.50;;;;;;;7.42;81.75;98739.02;5076161;57;1134545;-76
2021/03/13 15:04:23;;;;;;;7.97;3.80;;;;;;;7.39;83.19;98736.19;5075430;56;1134491;-76
2021/03/13 15:09:29;;;;;;;6.97;4.27;;;;;;;7.34;83.25;98729.20;5075871;56;1134633;-76
2021/03/13 15:14:35;;;;;;;8.83;4.43;;;;;;;7.32;83.18;98709.30;5079206;56;1134385;-76
2021/03/13 15:19:41;;;;;;;8.63;4.77;;;;;;;7.35;83.10;98692.73;5100276;56;1134295;-76
2021/03/13 15:24:46;;;;;;;6.90;3.02;;;;;;;7.38;82.49;98681.09;5080006;56;1134512;-73
2021/03/13 15:29:52;;;;;;;7.87;2.17;;;;;;;7.38;82.84;98668.78;5080986;56;1134422;-73
2021/03/13 15:34:58;;;;;;;4.30;1.82;;;;;;;7.37;83.32;98665.80;5102787;56;1134382;-73
2021/03/13 15:40:04;;;;;;;4.80;2.03;;;;;;;7.43;82.84;98655.20;5080465;56;1134263;-73
2021/03/13 15:45:12;;;;;;;3.47;2.67;;;;;;;7.43;82.74;98653.06;5108900;56;1134312;-74
2021/03/13 15:50:20;;;;;;;10.83;4.73;;;;;;;7.45;82.70;98644.55;5106110;56;1134327;-73
2021/03/13 15:55:26;;;;;;;6.07;3.00;;;;;;;7.46;82.13;98627.30;5079645;56;1136910;-75
2021/03/13 16:00:32;;;;;;;4.77;3.20;;;;;;;7.50;81.89;98604.14;5093082;56;1134633;-73
2021/03/13 16:05:43;;;;;;;7.60;3.98;;;;;;;7.51;81.42;98615.01;5140964;56;1134519;-75
2021/03/13 16:10:49;;;;;;;4.53;2.47;;;;;;;7.52;81.14;98606.14;5116181;56;1134261;-73
2021/03/13 16:15:56;;;;;;;7.42;3.75;;;;;;;7.53;80.94;98603.38;5084120;56;1134746;-77
2021/03/13 16:21:04;;;;;;;6.40;3.83;;;;;;;7.55;81.03;98603.23;5081915;56;1134397;-75
2021/03/13 16:26:11;;;;;;;22.50;5.27;;;;;;;7.55;80.79;98596.17;5087034;56;1134736;-75
2021/03/13 16:31:19;;;;;;;14.17;6.60;;;;;;;7.54;80.99;98587.94;5087023;56;1136322;-78
2021/03/13 16:36:25;;;;;;;10.13;4.53;;;;;;;7.52;81.21;98597.77;5086957;56;1136324;-77
2021/03/13 16:41:31;;;;;;;12.40;4.53;;;;;;;7.48;81.10;98587.22;5087187;57;1136500;-73
2021/03/13 16:46:38;;;;;;;17.87;7.30;;;;;;;7.46;81.78;98588.34;5084999;57;1136822;-73
2021/03/13 16:51:44;;;;;;;3.67;1.93;;;;;;;7.43;82.09;98581.56;5088000;56;1137177;-74
2021/03/13 16:56:51;;;;;;;8.33;3.65;;;;;;;7.39;82.60;98574.45;5087580;56;1134676;-73
2021/03/13 17:02:00;;;;;;;20.45;8.03;;;;;;;7.36;82.35;98558.13;5087914;56;1134512;-73
2021/03/13 17:07:06;;;;;;;6.17;3.10;;;;;;;7.34;82.61;98570.10;5087038;56;1136685;-73
2021/03/13 17:12:12;;;;;;;17.33;8.47;;;;;;;7.30;82.99;98562.67;5087731;56;1134419;-72
2021/03/13 17:17:20;;;;;;;23.70;11.60;;;;;;;7.30;83.00;98555.61;5080231;56;1136585;-73
2021/03/13 17:22:27;;;;;;;5.83;3.13;;;;;;;7.30;82.41;98549.53;5063838;56;1138755;-73
2021/03/13 17:27:33;;;;;;;29.73;11.27;;;;;;;7.30;82.59;98563.50;5075839;57;1134579;-75
2021/03/13 17:32:43;;;;;;;8.97;3.93;;;;;;;7.26;82.55;98579.22;5075187;56;1138424;-73
2021/03/13 17:37:49;;;;;;;9.38;5.25;;;;;;;7.20;83.54;98583.73;5075347;57;1134529;-73
2021/03/13 17:42:56;;;;;;;5.23;2.40;;;;;;;7.16;83.57;98565.30;5068907;57;1134948;-73
2021/03/13 17:48:03;;;;;;;4.57;1.87;;;;;;;7.13;84.34;98648.88;5075467;56;1134785;-74
2021/03/13 17:53:09;;;;;;;5.70;1.50;;;;;;;6.72;84.36;98689.48;5075466;57;1132940;-73
2021/03/13 17:58:15;;;;;;;1.30;0.90;;;;;;;6.18;84.99;98706.58;5076157;56;1132903;-76
2021/03/13 18:03:22;;;;;;;4.03;0.67;;;;;;;5.97;85.36;98679.10;5075557;57;1132675;-75
2021/03/13 18:08:29;;;;;;;3.23;0.90;;;;;;;5.89;84.61;98661.91;5076074;56;1132637;-73
2021/03/13 18:13:36;;;;;;;2.67;1.87;;;;;;;5.92;84.24;98637.55;5075317;57;1132732;-74
2021/03/13 18:18:42;;;;;;;35.17;6.30;;;;;;;5.94;83.93;98654.47;5080022;56;1132674;-74
2021/03/13 18:23:50;;;;;;;3.65;1.30;;;;;;;5.92;83.45;98649.84;5084268;57;1134847;-74
2021/03/13 18:28:56;;;;;;;8.85;2.17;;;;;;;5.89;82.96;98666.67;5084550;57;1132665;-74
2021/03/13 18:34:02;;;;;;;9.30;3.20;;;;;;;5.84;82.78;98675.87;5083986;57;1134694;-78
2021/03/13 18:39:11;;;;;;;13.30;3.80;;;;;;;5.79;82.64;98676.30;5083062;57;1134828;-75
2021/03/13 18:44:18;;;;;;;4.03;2.50;;;;;;;5.76;82.82;98685.73;5074544;56;1137107;-76
2021/03/13 18:49:24;;;;;;;9.07;3.20;;;;;;;5.75;83.12;98685.38;5032076;56;1135184;-74
2021/03/13 18:54:31;;;;;;;16.97;5.13;;;;;;;5.70;83.48;98671.00;5083664;56;1134924;-75
2021/03/13 18:59:47;;;;;;;8.43;3.57;;;;;;;5.67;83.90;98679.95;5082323;56;1140146;-76
2021/03/13 19:04:53;;;;;;;109.80;31.37;;;;;;;5.61;84.24;98689.20;5083894;56;1132364;-75
2021/03/13 19:09:59;;;;;;;23.42;6.17;;;;;;;5.59;84.13;98703.41;5084178;56;1140732;-77
2021/03/13 19:15:07;;;;;;;10.80;4.13;;;;;;;5.57;84.49;98711.88;5083408;56;1136503;-75
2021/03/13 19:20:16;;;;;;;9.10;2.73;;;;;;;5.56;84.19;98710.22;5058019;56;1136462;-74
2021/03/13 19:25:23;;;;;;;6.75;2.60;;;;;;;5.56;84.62;98711.53;5001374;57;1134346;-76
2021/03/13 19:30:30;;;;;;;11.87;4.13;;;;;;;5.63;84.87;98725.31;5001838;57;1134246;-75
2021/03/13 19:35:42;;;;;;;11.48;3.08;;;;;;;5.66;84.43;98727.64;5001646;57;1137142;-76
2021/03/13 19:40:47;;;;;;;7.33;2.60;;;;;;;5.68;84.74;98725.38;5045291;57;1136718;-77
2021/03/13 19:45:54;;;;;;;85.50;29.72;;;;;;;5.68;84.37;98722.75;5084898;56;1135054;-75
2021/03/13 19:51:02;;;;;;;10.50;2.70;;;;;;;5.64;84.07;98728.28;5084679;56;1141268;-78
2021/03/13 19:56:08;;;;;;;7.83;2.63;;;;;;;5.59;84.21;98728.31;5085126;56;1134901;-75
2021/03/13 20:01:14;;;;;;;8.13;2.83;;;;;;;5.55;83.96;98727.74;5085032;56;1132723;-75
2021/03/13 20:06:21;;;;;;;5.17;2.58;;;;;;;5.53;83.50;98724.90;5085151;56;1132531;-75
2021/03/13 20:11:28;;;;;;;7.97;4.00;;;;;;;5.52;83.10;98727.17;5085459;56;1132947;-79
2021/03/13 20:16:34;;;;;;;5.67;2.67;;;;;;;5.47;82.92;98727.58;5085667;56;1132618;-77
2021/03/13 20:21:40;;;;;;;4.27;2.40;;;;;;;5.42;82.81;98727.13;5081226;56;1134824;-74
2021/03/13 20:26:47;;;;;;;32.35;10.65;;;;;;;5.36;82.74;98731.57;5091555;56;1134746;-77
2021/03/13 20:31:53;;;;;;;16.80;4.60;;;;;;;5.32;82.71;98733.29;5076428;56;1138920;-74
2021/03/13 20:37:04;;;;;;;7.78;2.08;;;;;;;5.27;82.85;98734.50;5076773;56;1134817;-77
2021/03/13 20:42:07;;;;;;;4.53;2.13;;;;;;;5.23;82.69;98729.16;5012468;56;1134849;-74
2021/03/13 20:47:12;;;;;;;7.07;2.70;;;;;;;5.19;82.75;98730.88;4999247;57;1134995;-77
2021/03/13 20:52:18;;;;;;;5.97;2.10;;;;;;;5.16;82.62;98735.06;4994074;57;1134989;-76
2021/03/13 20:57:24;;;;;;;2.97;1.87;;;;;;;5.16;82.59;98737.68;4988418;57;1134770;-77
2021/03/13 21:02:29;;;;;;;7.90;2.77;;;;;;;5.12;82.59;98734.48;4994219;57;1134828;-78
2021/03/13 21:07:35;;;;;;;5.70;2.50;;;;;;;5.09;82.47;98729.97;5007605;57;1132726;-74
2021/03/13 21:12:41;;;;;;;3.77;1.63;;;;;;;5.07;82.55;98735.33;5033577;56;1134760;-77
2021/03/13 21:17:48;;;;;;;4.12;2.50;;;;;;;5.06;82.69;98728.91;5016552;57;1134680;-76
2021/03/13 21:22:54;;;;;;;5.25;2.72;;;;;;;5.02;82.89;98731.45;4995292;57;1134805;-76
2021/03/13 21:28:00;;;;;;;5.73;2.73;;;;;;;4.97;83.00;98730.52;5051790;57;1132722;-75
2021/03/13 21:33:06;;;;;;;7.87;3.05;;;;;;;4.95;83.04;98728.50;5059853;57;1132697;-78
2021/03/13 21:38:11;;;;;;;8.18;3.00;;;;;;;4.94;82.93;98727.67;4939138;58;1134381;-77
2021/03/13 21:43:18;;;;;;;11.90;3.40;;;;;;;4.94;83.24;98721.12;4897236;58;1132229;-76
2021/03/13 21:48:23;;;;;;;7.70;3.07;;;;;;;4.94;83.17;98722.91;4897036;58;1136327;-77
2021/03/13 21:53:29;;;;;;;8.10;3.20;;;;;;;4.92;82.98;98716.95;4980909;58;1134898;-75
2021/03/13 21:58:35;;;;;;;7.73;3.50;;;;;;;4.91;82.73;98708.27;4981708;58;1134478;-77
2021/03/13 22:03:40;;;;;;;8.00;3.37;;;;;;;4.90;82.65;98701.84;5076317;56;1132207;-76
2021/03/13 22:08:46;;;;;;;6.57;3.27;;;;;;;4.88;82.52;98712.48;5076658;56;1132149;-75
2021/03/13 22:13:52;;;;;;;6.27;3.57;;;;;;;4.88;82.40;98705.93;5061267;57;1132124;-77
2021/03/13 22:18:57;;;;;;;8.00;3.65;;;;;;;4.87;82.23;98698.20;5066399;57;1132218;-75
2021/03/13 22:24:05;;;;;;;8.33;3.77;;;;;;;4.83;82.13;98697.61;4994966;57;1134638;-75
2021/03/13 22:29:10;;;;;;;62.50;23.00;;;;;;;4.82;81.92;98708.21;4995286;57;1132226;-75
2021/03/13 22:34:16;;;;;;;59.47;22.60;;;;;;;4.80;81.74;98709.64;4994894;57;1136401;-74
2021/03/13 22:39:22;;;;;;;8.30;4.07;;;;;;;4.78;81.57;98701.56;4995050;57;1136286;-78
2021/03/13 22:44:27;;;;;;;5.47;3.10;;;;;;;4.77;81.31;98699.89;4995048;57;1132363;-77
2021/03/13 22:49:33;;;;;;;6.77;2.50;;;;;;;4.77;81.16;98701.20;4995104;57;1132100;-77
2021/03/13 22:54:39;;;;;;;5.10;1.80;;;;;;;4.77;80.99;98695.48;4995822;57;1132440;-75
2021/03/13 22:59:44;;;;;;;3.53;2.50;;;;;;;4.75;80.85;98697.87;4995320;57;1132449;-75
2021/03/13 23:04:51;;;;;;;6.67;2.90;;;;;;;4.71;80.59;98689.47;4995228;56;1132603;-77
2021/03/13 23:09:56;;;;;;;5.72;2.00;;;;;;;4.72;80.61;98678.52;5014705;57;1132700;-81
2021/03/13 23:15:03;;;;;;;8.83;3.55;;;;;;;4.70;79.95;98685.19;5073863;57;1132410;-74
2021/03/13 23:20:13;;;;;;;17.30;5.23;;;;;;;4.74;79.96;98690.98;5069423;57;1132409;-77
2021/03/13 23:25:23;;;;;;;51.43;18.47;;;;;;;4.74;79.35;98690.98;5070501;56;1134542;-76
2021/03/13 23:30:34;;;;;;;85.40;28.73;;;;;;;4.76;79.36;98687.28;5080684;56;1136801;-75
2021/03/13 23:35:50;;;;;;;42.80;15.70;;;;;;;4.74;79.11;98681.33;5086528;56;1136408;-74
2021/03/13 23:40:57;;;;;;;32.80;12.35;;;;;;;4.74;78.68;98682.64;5089951;56;1136398;-76
2021/03/13 23:46:04;;;;;;;32.48;12.43;;;;;;;4.71;78.20;98679.47;5089364;56;1136363;-77
2021/03/13 23:51:10;;;;;;;58.53;18.87;;;;;;;4.72;78.21;98675.90;5088988;56;1136472;-75
2021/03/13 23:56:15;;;;;;;139.45;47.25;;;;;;;4.69;77.97;98674.84;5088721;56;1136360;-75
